AUA645 LOWW-LKPR
Flight info
| Callsign | AUA645 |
|---|---|
| Flight time | 0h 37m |
| Altitude | 20000 |
| Route | LANUX DCT VLM |
| Aircraft | DH8D/M-SDE2E3FGRY/H |
Departure
| Time | 2026-04-22 11:42 |
|---|---|
| Airport | Vienna International Airport (LOWW) |
Arrival
| Time | 2026-04-22 12:19 |
|---|---|
| Airport | Václav Havel Airport Prague (LKPR) |
| Time | Latitude | Longitude | Altitude | Speed | Heading |
|---|---|---|---|---|---|
| 2026-04-22 11:18 | 48.11447 | 16.57076 | 606 ft | 0 kts | 206° |
| 2026-04-22 11:35 | 48.11418 | 16.57055 | 606 ft | 9 kts | 204° |
| 2026-04-22 11:36 | 48.11339 | 16.57060 | 607 ft | 11 kts | 178° |
| 2026-04-22 11:36 | 48.11266 | 16.57103 | 608 ft | 14 kts | 122° |
| 2026-04-22 11:36 | 48.11218 | 16.57248 | 609 ft | 17 kts | 116° |
| 2026-04-22 11:36 | 48.11160 | 16.57424 | 609 ft | 19 kts | 116° |
| 2026-04-22 11:37 | 48.11102 | 16.57604 | 610 ft | 18 kts | 116° |
| 2026-04-22 11:37 | 48.11045 | 16.57765 | 610 ft | 17 kts | 130° |
| 2026-04-22 11:37 | 48.10930 | 16.57841 | 611 ft | 20 kts | 165° |
| 2026-04-22 11:37 | 48.10795 | 16.57898 | 612 ft | 20 kts | 165° |
| 2026-04-22 11:38 | 48.10603 | 16.57979 | 614 ft | 31 kts | 164° |
| 2026-04-22 11:38 | 48.10410 | 16.58061 | 616 ft | 27 kts | 164° |
| 2026-04-22 11:38 | 48.10074 | 16.58204 | 617 ft | 27 kts | 165° |
| 2026-04-22 11:39 | 48.09880 | 16.58286 | 616 ft | 28 kts | 164° |
| 2026-04-22 11:39 | 48.09671 | 16.58374 | 615 ft | 32 kts | 165° |
| 2026-04-22 11:39 | 48.09443 | 16.58471 | 611 ft | 35 kts | 165° |
| 2026-04-22 11:39 | 48.09221 | 16.58564 | 607 ft | 31 kts | 165° |
| 2026-04-22 11:40 | 48.09036 | 16.58642 | 603 ft | 24 kts | 164° |
| 2026-04-22 11:40 | 48.08876 | 16.58712 | 598 ft | 22 kts | 159° |
| 2026-04-22 11:40 | 48.08790 | 16.58886 | 593 ft | 20 kts | 94° |
| 2026-04-22 11:40 | 48.08842 | 16.59060 | 593 ft | 17 kts | 44° |
| 2026-04-22 11:41 | 48.08936 | 16.59106 | 595 ft | 13 kts | 348° |
| 2026-04-22 11:41 | 48.09118 | 16.59030 | 601 ft | 61 kts | 344° |
| 2026-04-22 11:41 | 48.09777 | 16.58752 | 613 ft | 129 kts | 343° |
| 2026-04-22 11:41 | 48.10725 | 16.58365 | 827 ft | 147 kts | 344° |
| 2026-04-22 11:42 | 48.11736 | 16.57975 | 1300 ft | 155 kts | 345° |
| 2026-04-22 11:42 | 48.12791 | 16.57592 | 1845 ft | 160 kts | 351° |
| 2026-04-22 11:42 | 48.13915 | 16.57894 | 2221 ft | 177 kts | 24° |
| 2026-04-22 11:42 | 48.15017 | 16.58793 | 2752 ft | 180 kts | 27° |
| 2026-04-22 11:43 | 48.16114 | 16.59701 | 3227 ft | 182 kts | 27° |
| 2026-04-22 11:43 | 48.17224 | 16.60616 | 3736 ft | 183 kts | 26° |
| 2026-04-22 11:43 | 48.18346 | 16.61539 | 4257 ft | 184 kts | 26° |
| 2026-04-22 11:43 | 48.19450 | 16.62452 | 4733 ft | 185 kts | 27° |
| 2026-04-22 11:44 | 48.20547 | 16.63442 | 5197 ft | 186 kts | 29° |
| 2026-04-22 11:44 | 48.21649 | 16.64458 | 5663 ft | 186 kts | 29° |
| 2026-04-22 11:44 | 48.22749 | 16.65468 | 6116 ft | 188 kts | 29° |
| 2026-04-22 11:44 | 48.24005 | 16.66329 | 6209 ft | 206 kts | 6° |
| 2026-04-22 11:45 | 48.25391 | 16.65836 | 6468 ft | 213 kts | 332° |
| 2026-04-22 11:45 | 48.26673 | 16.64676 | 6920 ft | 216 kts | 330° |
| 2026-04-22 11:45 | 48.27957 | 16.63498 | 7374 ft | 219 kts | 330° |
| 2026-04-22 11:45 | 48.29260 | 16.62309 | 7841 ft | 221 kts | 330° |
| 2026-04-22 11:46 | 48.30574 | 16.61122 | 8304 ft | 223 kts | 330° |
| 2026-04-22 11:46 | 48.31905 | 16.59925 | 8764 ft | 225 kts | 331° |
| 2026-04-22 11:46 | 48.33253 | 16.58718 | 9222 ft | 227 kts | 331° |
| 2026-04-22 11:46 | 48.34620 | 16.57497 | 9679 ft | 229 kts | 331° |
| 2026-04-22 11:47 | 48.35988 | 16.56278 | 10130 ft | 231 kts | 331° |
| 2026-04-22 11:47 | 48.37370 | 16.55049 | 10578 ft | 233 kts | 332° |
| 2026-04-22 11:47 | 48.38765 | 16.53810 | 11024 ft | 235 kts | 332° |
| 2026-04-22 11:47 | 48.40180 | 16.52552 | 11477 ft | 237 kts | 332° |
| 2026-04-22 11:48 | 48.41610 | 16.51280 | 11933 ft | 239 kts | 332° |
| 2026-04-22 11:48 | 48.43036 | 16.50011 | 12384 ft | 240 kts | 332° |
| 2026-04-22 11:48 | 48.44468 | 16.48736 | 12828 ft | 242 kts | 333° |
| 2026-04-22 11:48 | 48.45909 | 16.47367 | 13268 ft | 246 kts | 324° |
| 2026-04-22 11:49 | 48.46939 | 16.45298 | 13646 ft | 254 kts | 301° |
| 2026-04-22 11:49 | 48.47726 | 16.42895 | 14068 ft | 256 kts | 300° |
| 2026-04-22 11:49 | 48.48505 | 16.40487 | 14480 ft | 258 kts | 301° |
| 2026-04-22 11:49 | 48.49292 | 16.38062 | 14880 ft | 260 kts | 301° |
| 2026-04-22 11:50 | 48.50086 | 16.35617 | 15277 ft | 261 kts | 301° |
| 2026-04-22 11:50 | 48.50903 | 16.33105 | 15659 ft | 263 kts | 300° |
| 2026-04-22 11:50 | 48.51702 | 16.30647 | 16032 ft | 265 kts | 300° |
| 2026-04-22 11:50 | 48.52518 | 16.28143 | 16398 ft | 266 kts | 300° |
| 2026-04-22 11:51 | 48.53342 | 16.25612 | 16757 ft | 268 kts | 300° |
| 2026-04-22 11:51 | 48.54157 | 16.23111 | 17101 ft | 269 kts | 300° |
| 2026-04-22 11:51 | 48.54990 | 16.20552 | 17443 ft | 271 kts | 300° |
| 2026-04-22 11:51 | 48.55817 | 16.18011 | 17765 ft | 272 kts | 300° |
| 2026-04-22 11:52 | 48.56656 | 16.15430 | 18082 ft | 273 kts | 300° |
| 2026-04-22 11:52 | 48.57565 | 16.12944 | 18374 ft | 271 kts | 310° |
| 2026-04-22 11:52 | 48.58787 | 16.10811 | 18667 ft | 270 kts | 317° |
| 2026-04-22 11:52 | 48.60078 | 16.08736 | 18969 ft | 271 kts | 317° |
| 2026-04-22 11:53 | 48.61377 | 16.06644 | 19263 ft | 272 kts | 317° |
| 2026-04-22 11:53 | 48.62676 | 16.04545 | 19554 ft | 273 kts | 317° |
| 2026-04-22 11:53 | 48.63964 | 16.02458 | 19828 ft | 275 kts | 317° |
| 2026-04-22 11:53 | 48.65272 | 16.00333 | 20083 ft | 276 kts | 317° |
| 2026-04-22 11:54 | 48.66600 | 15.98176 | 20197 ft | 284 kts | 317° |
| 2026-04-22 11:54 | 48.67962 | 15.95959 | 20233 ft | 294 kts | 317° |
| 2026-04-22 11:54 | 48.69388 | 15.93634 | 20244 ft | 304 kts | 317° |
| 2026-04-22 11:54 | 48.70844 | 15.91254 | 20229 ft | 312 kts | 317° |
| 2026-04-22 11:55 | 48.72333 | 15.88813 | 20223 ft | 319 kts | 317° |
| 2026-04-22 11:55 | 48.73851 | 15.86322 | 20221 ft | 324 kts | 317° |
| 2026-04-22 11:55 | 48.75389 | 15.83795 | 20220 ft | 329 kts | 317° |
| 2026-04-22 11:55 | 48.76944 | 15.81239 | 20215 ft | 332 kts | 317° |
| 2026-04-22 11:56 | 48.78515 | 15.78655 | 20214 ft | 335 kts | 317° |
| 2026-04-22 11:56 | 48.80114 | 15.76022 | 20214 ft | 337 kts | 317° |
| 2026-04-22 11:56 | 48.81702 | 15.73404 | 20217 ft | 339 kts | 317° |
| 2026-04-22 11:56 | 48.83304 | 15.70760 | 20219 ft | 340 kts | 317° |
| 2026-04-22 11:57 | 48.84904 | 15.68115 | 20220 ft | 341 kts | 317° |
| 2026-04-22 11:57 | 48.86503 | 15.65471 | 20220 ft | 342 kts | 317° |
| 2026-04-22 11:57 | 48.88135 | 15.62803 | 20215 ft | 342 kts | 319° |
| 2026-04-22 11:57 | 48.90027 | 15.60792 | 20231 ft | 333 kts | 338° |
| 2026-04-22 11:58 | 48.92156 | 15.59359 | 20211 ft | 333 kts | 340° |
| 2026-04-22 11:58 | 48.94264 | 15.57972 | 20212 ft | 334 kts | 341° |
| 2026-04-22 11:58 | 48.96408 | 15.56564 | 20218 ft | 334 kts | 341° |
| 2026-04-22 11:58 | 48.98529 | 15.55168 | 20221 ft | 334 kts | 341° |
| 2026-04-22 11:59 | 49.00662 | 15.53760 | 20221 ft | 334 kts | 340° |
| 2026-04-22 11:59 | 49.02811 | 15.52338 | 20219 ft | 334 kts | 340° |
| 2026-04-22 11:59 | 49.04935 | 15.50931 | 20219 ft | 334 kts | 340° |
| 2026-04-22 11:59 | 49.07079 | 15.49506 | 20219 ft | 335 kts | 340° |
| 2026-04-22 12:00 | 49.09211 | 15.48086 | 20219 ft | 335 kts | 340° |
| 2026-04-22 12:00 | 49.11321 | 15.46678 | 20221 ft | 334 kts | 340° |
| 2026-04-22 12:00 | 49.13462 | 15.45247 | 20220 ft | 334 kts | 340° |
| 2026-04-22 12:00 | 49.15599 | 15.43820 | 20220 ft | 334 kts | 340° |
| 2026-04-22 12:01 | 49.17732 | 15.42392 | 20221 ft | 335 kts | 340° |
| 2026-04-22 12:01 | 49.19852 | 15.40973 | 20222 ft | 335 kts | 340° |
| 2026-04-22 12:01 | 49.22001 | 15.39532 | 20223 ft | 335 kts | 340° |
| 2026-04-22 12:01 | 49.24123 | 15.38109 | 20255 ft | 335 kts | 340° |
| 2026-04-22 12:02 | 49.26224 | 15.36692 | 20017 ft | 323 kts | 340° |
| 2026-04-22 12:02 | 49.28245 | 15.35321 | 19705 ft | 314 kts | 341° |
| 2026-04-22 12:02 | 49.30225 | 15.33981 | 19362 ft | 307 kts | 340° |
| 2026-04-22 12:02 | 49.32147 | 15.32682 | 18974 ft | 301 kts | 340° |
| 2026-04-22 12:03 | 49.34046 | 15.31399 | 18624 ft | 294 kts | 340° |
| 2026-04-22 12:03 | 49.35901 | 15.30146 | 18296 ft | 289 kts | 340° |
| 2026-04-22 12:03 | 49.37716 | 15.28920 | 17979 ft | 283 kts | 340° |
| 2026-04-22 12:03 | 49.39513 | 15.27705 | 17663 ft | 279 kts | 340° |
| 2026-04-22 12:04 | 49.41277 | 15.26512 | 17357 ft | 274 kts | 340° |
| 2026-04-22 12:04 | 49.42996 | 15.25348 | 17060 ft | 270 kts | 340° |
| 2026-04-22 12:04 | 49.44716 | 15.24184 | 16765 ft | 266 kts | 340° |
| 2026-04-22 12:04 | 49.46379 | 15.23058 | 16482 ft | 262 kts | 340° |
| 2026-04-22 12:05 | 49.48037 | 15.21942 | 16201 ft | 258 kts | 340° |
| 2026-04-22 12:05 | 49.49671 | 15.20840 | 15919 ft | 255 kts | 341° |
| 2026-04-22 12:05 | 49.51298 | 15.19750 | 15653 ft | 255 kts | 341° |
| 2026-04-22 12:05 | 49.52908 | 15.18661 | 15383 ft | 256 kts | 340° |
| 2026-04-22 12:06 | 49.54550 | 15.17549 | 15093 ft | 257 kts | 340° |
| 2026-04-22 12:06 | 49.56181 | 15.16430 | 14814 ft | 257 kts | 340° |
| 2026-04-22 12:06 | 49.57822 | 15.15310 | 14528 ft | 259 kts | 340° |
| 2026-04-22 12:06 | 49.59477 | 15.14174 | 14236 ft | 260 kts | 340° |
| 2026-04-22 12:07 | 49.61122 | 15.13049 | 13948 ft | 261 kts | 340° |
| 2026-04-22 12:07 | 49.62783 | 15.11912 | 13657 ft | 262 kts | 340° |
| 2026-04-22 12:07 | 49.64455 | 15.10769 | 13364 ft | 263 kts | 340° |
| 2026-04-22 12:07 | 49.66123 | 15.09630 | 13072 ft | 263 kts | 340° |
| 2026-04-22 12:08 | 49.67809 | 15.08481 | 12780 ft | 264 kts | 340° |
| 2026-04-22 12:08 | 49.69484 | 15.07329 | 12480 ft | 264 kts | 338° |
| 2026-04-22 12:08 | 49.70987 | 15.05661 | 12173 ft | 270 kts | 316° |
| 2026-04-22 12:08 | 49.72166 | 15.03378 | 11875 ft | 272 kts | 311° |
| 2026-04-22 12:09 | 49.73310 | 15.01078 | 11575 ft | 272 kts | 311° |
| 2026-04-22 12:09 | 49.74467 | 14.98748 | 11271 ft | 273 kts | 311° |
| 2026-04-22 12:09 | 49.75621 | 14.96414 | 10967 ft | 273 kts | 311° |
| 2026-04-22 12:09 | 49.76772 | 14.94091 | 10662 ft | 272 kts | 311° |
| 2026-04-22 12:10 | 49.77924 | 14.91775 | 10359 ft | 272 kts | 311° |
| 2026-04-22 12:10 | 49.79087 | 14.89435 | 10053 ft | 272 kts | 311° |
| 2026-04-22 12:10 | 49.80230 | 14.87136 | 9753 ft | 272 kts | 311° |
| 2026-04-22 12:10 | 49.81376 | 14.84811 | 9453 ft | 271 kts | 310° |
| 2026-04-22 12:11 | 49.82507 | 14.82510 | 9157 ft | 271 kts | 310° |
| 2026-04-22 12:11 | 49.83653 | 14.80179 | 8855 ft | 268 kts | 310° |
| 2026-04-22 12:11 | 49.84758 | 14.77924 | 8562 ft | 262 kts | 310° |
| 2026-04-22 12:11 | 49.85858 | 14.75685 | 8271 ft | 257 kts | 310° |
| 2026-04-22 12:12 | 49.86934 | 14.73501 | 7989 ft | 252 kts | 310° |
| 2026-04-22 12:12 | 49.87991 | 14.71351 | 7710 ft | 248 kts | 310° |
| 2026-04-22 12:12 | 49.89018 | 14.69261 | 7438 ft | 245 kts | 310° |
| 2026-04-22 12:12 | 49.90049 | 14.67168 | 7166 ft | 241 kts | 310° |
| 2026-04-22 12:13 | 49.91052 | 14.65130 | 6900 ft | 238 kts | 310° |
| 2026-04-22 12:13 | 49.92049 | 14.63102 | 6636 ft | 234 kts | 310° |
| 2026-04-22 12:13 | 49.93029 | 14.61105 | 6375 ft | 231 kts | 310° |
| 2026-04-22 12:13 | 49.93989 | 14.59146 | 6120 ft | 228 kts | 310° |
| 2026-04-22 12:14 | 49.94938 | 14.57207 | 5868 ft | 224 kts | 310° |
| 2026-04-22 12:14 | 49.95878 | 14.55287 | 5617 ft | 221 kts | 309° |
| 2026-04-22 12:14 | 49.96801 | 14.53393 | 5371 ft | 218 kts | 309° |
| 2026-04-22 12:14 | 49.97702 | 14.51538 | 5129 ft | 214 kts | 309° |
| 2026-04-22 12:15 | 49.98584 | 14.49708 | 4878 ft | 209 kts | 309° |
| 2026-04-22 12:15 | 49.99431 | 14.47953 | 4575 ft | 198 kts | 309° |
| 2026-04-22 12:15 | 50.00251 | 14.46263 | 4224 ft | 192 kts | 309° |
| 2026-04-22 12:15 | 50.01052 | 14.44620 | 3807 ft | 193 kts | 309° |
| 2026-04-22 12:16 | 50.01846 | 14.42993 | 3564 ft | 184 kts | 309° |
| 2026-04-22 12:16 | 50.02603 | 14.41434 | 3445 ft | 175 kts | 310° |
| 2026-04-22 12:16 | 50.03343 | 14.39920 | 3195 ft | 174 kts | 310° |
| 2026-04-22 12:16 | 50.04034 | 14.38484 | 2907 ft | 160 kts | 310° |
| 2026-04-22 12:17 | 50.04672 | 14.37163 | 2631 ft | 141 kts | 310° |
| 2026-04-22 12:17 | 50.05230 | 14.36008 | 2430 ft | 126 kts | 311° |
| 2026-04-22 12:17 | 50.05763 | 14.34951 | 2299 ft | 123 kts | 311° |
| 2026-04-22 12:17 | 50.06292 | 14.33883 | 2181 ft | 125 kts | 310° |
| 2026-04-22 12:18 | 50.06813 | 14.32796 | 2008 ft | 124 kts | 310° |
| 2026-04-22 12:18 | 50.07338 | 14.31725 | 1850 ft | 126 kts | 310° |
| 2026-04-22 12:18 | 50.07852 | 14.30639 | 1684 ft | 124 kts | 309° |
| 2026-04-22 12:18 | 50.08368 | 14.29552 | 1490 ft | 122 kts | 310° |
| 2026-04-22 12:19 | 50.08888 | 14.28488 | 1331 ft | 124 kts | 310° |
| 2026-04-22 12:19 | 50.09407 | 14.27421 | 1227 ft | 124 kts | 310° |
| 2026-04-22 12:19 | 50.09817 | 14.26573 | 1216 ft | 73 kts | 306° |
| 2026-04-22 12:19 | 50.10048 | 14.26094 | 1204 ft | 48 kts | 307° |
| 2026-04-22 12:20 | 50.10234 | 14.25738 | 1193 ft | 32 kts | 323° |
| 2026-04-22 12:20 | 50.10423 | 14.25660 | 1186 ft | 27 kts | 4° |
| 2026-04-22 12:20 | 50.10497 | 14.25823 | 1186 ft | 19 kts | 79° |
| 2026-04-22 12:20 | 50.10557 | 14.25997 | 1186 ft | 19 kts | 35° |
| 2026-04-22 12:21 | 50.10689 | 14.26128 | 1183 ft | 25 kts | 33° |
| 2026-04-22 12:21 | 50.10822 | 14.26274 | 1180 ft | 19 kts | 34° |
| 2026-04-22 12:21 | 50.10922 | 14.26378 | 1178 ft | 12 kts | 33° |
| 2026-04-22 12:21 | 50.10969 | 14.26355 | 1177 ft | 2 kts | 304° |
| 2026-04-22 12:22 | 50.10973 | 14.26346 | 1176 ft | 0 kts | 304° |